createdAt,value
2023-11-24T00:00:28.781Z,8.96
2023-11-24T00:04:40.476Z,8.92
2023-11-24T00:08:52.147Z,8.77
2023-11-24T00:13:03.836Z,8.77
2023-11-24T00:17:15.593Z,8.69
2023-11-24T00:21:27.338Z,8.56
2023-11-24T00:25:39.447Z,8.52
2023-11-24T00:29:51.512Z,8.55
2023-11-24T00:34:04.577Z,8.64
2023-11-24T00:38:17.083Z,8.63
2023-11-24T00:42:30.616Z,8.73
2023-11-24T00:46:42.480Z,8.80
2023-11-24T00:50:55.492Z,8.86
2023-11-24T00:55:07.667Z,8.93
2023-11-24T00:59:19.477Z,8.86
2023-11-24T01:03:32.207Z,8.88
2023-11-24T01:07:44.743Z,8.86
2023-11-24T01:11:56.794Z,8.69
2023-11-24T01:16:09.262Z,8.67
2023-11-24T01:20:22.740Z,8.57
2023-11-24T01:24:34.445Z,8.44
2023-11-24T01:28:46.118Z,8.40
2023-11-24T01:32:57.850Z,8.24
2023-11-24T01:37:09.687Z,8.25
2023-11-24T01:41:21.960Z,8.23
2023-11-24T01:45:33.645Z,8.12
2023-11-24T01:49:47.055Z,8.15
2023-11-24T01:53:59.656Z,8.07
2023-11-24T01:58:11.369Z,8.06
2023-11-24T02:02:23.203Z,8.06
2023-11-24T02:06:35.192Z,7.96
2023-11-24T02:10:47.124Z,8.08
2023-11-24T02:14:58.794Z,8.14
2023-11-24T02:19:12.786Z,7.98
2023-11-24T02:23:24.617Z,8.04
2023-11-24T02:27:36.716Z,8.09
2023-11-24T02:31:48.909Z,7.97
2023-11-24T02:36:06.663Z,7.85
2023-11-24T02:40:18.837Z,7.83
2023-11-24T02:44:30.669Z,7.86
2023-11-24T02:48:44.822Z,7.85
2023-11-24T02:52:56.638Z,7.89
2023-11-24T02:57:08.417Z,7.91
2023-11-24T03:01:20.052Z,7.89
2023-11-24T03:05:31.782Z,7.80
2023-11-24T03:09:43.473Z,7.82
2023-11-24T03:13:55.254Z,7.73
2023-11-24T03:18:07.774Z,7.78
2023-11-24T03:22:19.532Z,7.75
2023-11-24T03:26:31.380Z,7.75
2023-11-24T03:30:43.359Z,7.91
2023-11-24T03:34:56.907Z,7.96
2023-11-24T03:39:15.149Z,7.92
2023-11-24T03:43:27.364Z,8.04
2023-11-24T03:47:40.784Z,8.02
2023-11-24T03:51:52.526Z,7.96
2023-11-24T03:56:07.967Z,8.01
2023-11-24T04:00:20.088Z,7.91
2023-11-24T04:04:31.714Z,7.86
2023-11-24T04:08:44.037Z,7.81
2023-11-24T04:12:55.691Z,7.81
2023-11-24T04:17:08.586Z,7.82
2023-11-24T04:21:21.386Z,7.93
2023-11-24T04:25:33.061Z,7.94
2023-11-24T04:29:44.725Z,7.86
2023-11-24T04:33:56.731Z,7.77
2023-11-24T04:38:08.441Z,7.60
2023-11-24T04:42:21.692Z,7.46
2023-11-24T04:46:34.389Z,7.56
2023-11-24T04:50:46.225Z,7.45
2023-11-24T04:54:58.117Z,7.54
2023-11-24T04:59:09.925Z,7.60
2023-11-24T05:03:21.684Z,7.55
2023-11-24T05:07:33.339Z,7.59
2023-11-24T05:11:45.041Z,7.51
2023-11-24T05:15:59.616Z,7.42
2023-11-24T05:20:13.821Z,7.45
2023-11-24T05:24:25.645Z,7.43
2023-11-24T05:28:37.545Z,7.48
2023-11-24T05:32:49.316Z,7.52
2023-11-24T05:37:08.850Z,7.41
2023-11-24T05:41:21.402Z,7.58
2023-11-24T05:45:36.003Z,7.56
2023-11-24T05:49:49.614Z,7.47
2023-11-24T05:54:01.321Z,7.47
2023-11-24T05:58:13.207Z,7.32
2023-11-24T06:02:25.825Z,7.26
2023-11-24T06:06:37.683Z,7.14
2023-11-24T06:10:49.321Z,7.07
2023-11-24T06:15:01.032Z,7.26
2023-11-24T06:19:12.731Z,7.17
2023-11-24T06:23:24.399Z,7.01
2023-11-24T06:27:37.551Z,7.02
2023-11-24T06:31:49.263Z,6.98
2023-11-24T06:36:04.081Z,6.99
2023-11-24T06:40:19.024Z,7.04
2023-11-24T06:44:30.753Z,6.97
2023-11-24T06:48:42.367Z,7.03
2023-11-24T06:52:54.733Z,6.96
2023-11-24T06:57:06.417Z,6.98
2023-11-24T07:01:28.697Z,6.90
2023-11-24T07:05:40.595Z,6.79
2023-11-24T07:09:52.267Z,6.73
2023-11-24T07:14:04.023Z,6.73
2023-11-24T07:18:15.749Z,6.74
2023-11-24T07:22:28.465Z,6.74
2023-11-24T07:26:40.121Z,6.69
2023-11-24T07:30:51.929Z,6.75
2023-11-24T07:35:04.533Z,6.69
2023-11-24T07:39:16.295Z,6.58
2023-11-24T07:43:27.913Z,6.51
2023-11-24T07:47:40.865Z,6.57
2023-11-24T07:51:53.056Z,6.64
2023-11-24T07:56:07.676Z,6.85
2023-11-24T08:00:20.094Z,6.73
2023-11-24T08:04:31.903Z,6.71
2023-11-24T08:08:43.689Z,6.61
2023-11-24T08:12:55.417Z,6.46
2023-11-24T08:17:07.313Z,6.79
2023-11-24T08:21:19.917Z,6.76
2023-11-24T08:25:31.588Z,6.87
2023-11-24T08:29:43.318Z,6.83
2023-11-24T08:33:55.063Z,6.61
2023-11-24T08:38:06.752Z,6.73
2023-11-24T08:42:18.505Z,6.74
2023-11-24T08:46:30.362Z,6.71
2023-11-24T08:50:42.503Z,6.58
2023-11-24T08:54:54.416Z,6.58
2023-11-24T08:59:09.624Z,6.55
2023-11-24T09:03:25.807Z,6.76
2023-11-24T09:07:38.016Z,6.82
2023-11-24T09:11:49.738Z,6.92
2023-11-24T09:16:03.797Z,7.01
2023-11-24T09:20:18.366Z,7.10
2023-11-24T09:24:30.414Z,7.22
2023-11-24T09:28:42.190Z,7.20
2023-11-24T09:32:55.648Z,7.28
2023-11-24T09:37:07.515Z,7.44
2023-11-24T09:41:20.487Z,8.47
2023-11-24T09:45:32.680Z,9.69
2023-11-24T09:49:44.503Z,10.41
2023-11-24T09:53:56.912Z,10.10
2023-11-24T09:58:08.733Z,10.39
2023-11-24T10:02:23.967Z,10.54
2023-11-24T10:06:40.511Z,9.92
2023-11-24T10:10:52.489Z,9.52
2023-11-24T10:15:05.429Z,8.93
2023-11-24T10:19:20.581Z,8.55
2023-11-24T10:23:34.996Z,8.13
2023-11-24T10:27:46.678Z,7.97
2023-11-24T10:31:58.514Z,7.78
2023-11-24T10:36:10.921Z,7.88
2023-11-24T10:40:24.077Z,8.16
2023-11-24T10:44:43.632Z,8.29
2023-11-24T10:49:13.911Z,8.29
2023-11-24T10:53:50.317Z,8.59
2023-11-24T10:58:03.211Z,8.83
2023-11-24T11:02:17.920Z,9.14
2023-11-24T11:06:40.479Z,9.00
2023-11-24T11:11:07.632Z,8.93
2023-11-24T11:15:25.412Z,8.67
2023-11-24T11:19:37.150Z,8.66
2023-11-24T11:23:58.646Z,8.69
2023-11-24T11:28:20.439Z,8.64
2023-11-24T11:32:34.250Z,8.52
2023-11-24T11:36:51.319Z,8.42
2023-11-24T11:41:05.763Z,8.54
2023-11-24T11:45:17.546Z,8.98
2023-11-24T11:49:30.950Z,9.02
2023-11-24T11:53:43.918Z,9.27
2023-11-24T11:57:56.463Z,9.70
2023-11-24T12:02:10.147Z,9.82
2023-11-24T12:06:22.020Z,10.00
2023-11-24T12:10:33.697Z,10.15
2023-11-24T12:14:49.316Z,10.13
2023-11-24T12:19:05.736Z,10.23
2023-11-24T12:23:18.272Z,10.16
2023-11-24T12:27:30.018Z,9.88
2023-11-24T12:31:43.720Z,9.67
2023-11-24T12:36:00.358Z,9.69
2023-11-24T12:40:12.932Z,9.52
2023-11-24T12:44:30.297Z,9.51
2023-11-24T12:48:42.579Z,9.26
2023-11-24T12:52:55.173Z,9.07
2023-11-24T12:57:07.646Z,8.96
2023-11-24T13:01:19.504Z,8.64
2023-11-24T13:05:31.184Z,8.54
2023-11-24T13:09:42.798Z,8.48
2023-11-24T13:13:54.888Z,8.34
2023-11-24T13:18:06.532Z,8.30
2023-11-24T13:22:18.194Z,8.28
2023-11-24T13:26:30.138Z,8.38
2023-11-24T13:30:41.707Z,8.29
2023-11-24T13:34:54.094Z,8.03
2023-11-24T13:39:07.435Z,7.93
2023-11-24T13:43:20.314Z,7.72
2023-11-24T13:47:32.984Z,7.59
2023-11-24T13:51:46.414Z,7.54
2023-11-24T13:55:59.880Z,7.36
2023-11-24T14:00:12.672Z,7.46
2023-11-24T14:04:24.481Z,7.45
2023-11-24T14:08:39.462Z,7.40
2023-11-24T14:12:51.096Z,7.25
2023-11-24T14:17:03.274Z,7.25
2023-11-24T14:21:14.937Z,7.14
2023-11-24T14:25:26.532Z,7.26
2023-11-24T14:29:38.158Z,7.23
2023-11-24T14:38:02.553Z,7.23
2023-11-24T14:42:15.973Z,7.12
2023-11-24T14:46:31.385Z,7.29
2023-11-24T14:50:43.017Z,7.45
2023-11-24T14:54:56.495Z,7.37
2023-11-24T14:59:09.938Z,7.60
2023-11-24T15:03:23.735Z,6.98
2023-11-24T15:07:36.970Z,6.56
2023-11-24T15:11:53.047Z,6.17
2023-11-24T15:16:13.117Z,5.79
2023-11-24T15:20:33.250Z,5.70
2023-11-24T15:24:44.820Z,5.50
2023-11-24T15:28:57.048Z,5.31
2023-11-24T15:33:09.648Z,5.16
2023-11-24T15:37:21.346Z,5.17
2023-11-24T15:41:49.620Z,5.09
2023-11-24T15:46:01.671Z,4.98
2023-11-24T15:50:15.709Z,5.12
2023-11-24T15:54:27.957Z,5.24
2023-11-24T15:58:43.480Z,5.25
2023-11-24T16:02:55.094Z,5.49
2023-11-24T16:07:09.444Z,5.55
2023-11-24T16:11:32.970Z,5.57
2023-11-24T16:15:44.571Z,5.70
2023-11-24T16:19:56.471Z,5.79
2023-11-24T16:24:08.351Z,5.87
2023-11-24T16:28:19.918Z,5.88
2023-11-24T16:32:33.819Z,5.79
2023-11-24T16:36:46.101Z,5.53
2023-11-24T16:40:58.846Z,5.44
2023-11-24T16:45:11.539Z,5.46
2023-11-24T16:49:23.490Z,5.36
2023-11-24T16:53:35.147Z,5.37
2023-11-24T16:57:46.989Z,5.51
2023-11-24T17:02:07.907Z,5.58
2023-11-24T17:06:19.732Z,5.50
2023-11-24T17:10:31.804Z,5.33
2023-11-24T17:14:46.225Z,5.34
2023-11-24T17:18:57.872Z,5.31
2023-11-24T17:23:16.711Z,5.30
2023-11-24T17:27:29.363Z,5.18
2023-11-24T17:31:43.429Z,5.22
2023-11-24T17:35:55.166Z,5.23
2023-11-24T17:40:09.555Z,5.30
2023-11-24T17:44:21.311Z,5.21
2023-11-24T17:48:33.461Z,5.28
2023-11-24T17:52:45.052Z,5.21
2023-11-24T17:56:57.921Z,5.28
2023-11-24T18:01:09.600Z,5.14
2023-11-24T18:05:22.713Z,5.35
2023-11-24T18:09:34.462Z,5.38
2023-11-24T18:13:46.960Z,5.20
2023-11-24T18:17:58.607Z,5.44
2023-11-24T18:22:10.318Z,5.42
2023-11-24T18:26:21.893Z,5.50
2023-11-24T18:30:34.339Z,5.46
2023-11-24T18:34:45.999Z,5.55
2023-11-24T18:38:57.582Z,5.60
2023-11-24T18:43:09.219Z,5.69
2023-11-24T18:47:22.921Z,5.83
2023-11-24T18:51:35.775Z,5.76
2023-11-24T18:55:47.438Z,5.85
2023-11-24T18:59:59.101Z,5.71
2023-11-24T19:04:10.924Z,5.85
2023-11-24T19:08:22.548Z,5.97
2023-11-24T19:12:34.094Z,6.07
2023-11-24T19:16:46.900Z,5.40
2023-11-24T19:21:02.978Z,4.88
2023-11-24T19:25:21.858Z,4.69
2023-11-24T19:29:33.456Z,4.54
2023-11-24T19:33:44.994Z,4.43
2023-11-24T19:37:56.574Z,4.37
2023-11-24T19:42:08.172Z,4.28
2023-11-24T19:46:20.183Z,4.31
2023-11-24T19:50:31.760Z,4.26
2023-11-24T19:54:43.493Z,4.37
2023-11-24T19:58:54.995Z,4.40
2023-11-24T20:03:06.697Z,4.43
2023-11-24T20:07:19.381Z,4.34
2023-11-24T20:11:31.455Z,4.34
2023-11-24T20:15:44.925Z,4.38
2023-11-24T20:19:57.330Z,4.35
2023-11-24T20:24:09.747Z,4.34
2023-11-24T20:28:21.327Z,4.42
2023-11-24T20:32:33.043Z,4.45
2023-11-24T20:36:45.017Z,4.50
2023-11-24T20:40:56.704Z,4.41
2023-11-24T20:45:10.734Z,4.60
2023-11-24T20:49:22.380Z,4.65
2023-11-24T20:53:34.225Z,4.71
2023-11-24T20:57:45.875Z,4.83
2023-11-24T21:01:58.272Z,4.87
2023-11-24T21:06:10.790Z,4.99
2023-11-24T21:10:22.500Z,4.92
2023-11-24T21:14:34.200Z,4.61
2023-11-24T21:18:45.753Z,4.57
2023-11-24T21:22:57.945Z,4.36
2023-11-24T21:27:09.577Z,4.19
2023-11-24T21:31:21.356Z,3.96
2023-11-24T21:35:32.949Z,3.84
2023-11-24T21:39:46.026Z,3.72
2023-11-24T21:43:57.609Z,3.90
2023-11-24T21:48:13.322Z,3.98
2023-11-24T21:52:27.511Z,3.92
2023-11-24T21:56:39.224Z,4.03
2023-11-24T22:00:50.922Z,4.04
2023-11-24T22:05:04.285Z,4.12
2023-11-24T22:09:15.836Z,4.03
2023-11-24T22:13:52.456Z,4.13
2023-11-24T22:18:37.461Z,4.07
2023-11-24T22:28:46.621Z,4.01
2023-11-24T22:32:58.326Z,4.01
2023-11-24T22:37:11.553Z,3.95
2023-11-24T22:41:24.284Z,3.98
2023-11-24T22:45:35.881Z,3.94
2023-11-24T22:49:47.398Z,3.93
2023-11-24T22:53:58.921Z,3.85
2023-11-24T22:58:11.243Z,3.69
2023-11-24T23:02:24.166Z,3.59
2023-11-24T23:06:35.901Z,3.69
2023-11-24T23:10:47.518Z,3.70
2023-11-24T23:15:00.712Z,3.60
2023-11-24T23:19:12.969Z,3.61
2023-11-24T23:23:27.692Z,3.52
2023-11-24T23:27:40.568Z,3.32
2023-11-24T23:31:52.276Z,3.31
2023-11-24T23:36:04.723Z,3.40
2023-11-24T23:40:20.670Z,3.36
2023-11-24T23:44:32.246Z,3.33
2023-11-24T23:48:43.819Z,3.28
2023-11-24T23:52:56.131Z,3.26
2023-11-24T23:57:07.670Z,3.17
